createdAt,value
2023-02-12T00:00:10.776Z,128.10
2023-02-12T00:01:10.758Z,132.30
2023-02-12T00:02:10.807Z,133.60
2023-02-12T00:03:10.788Z,132.80
2023-02-12T00:04:10.770Z,132.10
2023-02-12T00:05:10.737Z,128.30
2023-02-12T00:06:10.763Z,129.00
2023-02-12T00:07:10.755Z,134.20
2023-02-12T00:08:10.724Z,131.30
2023-02-12T00:09:10.761Z,133.60
2023-02-12T00:10:10.722Z,136.00
2023-02-12T00:11:10.713Z,132.90
2023-02-12T00:12:10.692Z,131.30
2023-02-12T00:13:10.773Z,135.40
2023-02-12T00:14:10.738Z,137.60
2023-02-12T00:15:10.667Z,128.00
2023-02-12T00:16:10.729Z,132.80
2023-02-12T00:17:10.707Z,136.20
2023-02-12T00:18:10.675Z,135.10
2023-02-12T00:19:10.695Z,130.30
2023-02-12T00:20:10.657Z,134.50
2023-02-12T00:21:10.641Z,132.60
2023-02-12T00:22:10.677Z,132.10
2023-02-12T00:23:10.671Z,136.00
2023-02-12T00:24:10.681Z,134.00
2023-02-12T00:25:10.667Z,132.50
2023-02-12T00:26:10.656Z,134.50
2023-02-12T00:27:10.641Z,132.80
2023-02-12T00:28:10.664Z,130.30
2023-02-12T00:29:10.595Z,133.40
2023-02-12T00:30:10.618Z,124.20
2023-02-12T00:31:10.845Z,124.30
2023-02-12T00:32:10.664Z,127.60
2023-02-12T00:33:10.582Z,122.50
2023-02-12T00:34:10.585Z,124.50
2023-02-12T00:35:10.558Z,125.90
2023-02-12T00:36:10.553Z,125.80
2023-02-12T00:37:10.597Z,122.30
2023-02-12T00:38:10.580Z,122.10
2023-02-12T00:39:10.602Z,128.30
2023-02-12T00:40:10.545Z,129.30
2023-02-12T00:41:10.549Z,129.60
2023-02-12T00:42:10.551Z,124.60
2023-02-12T00:43:10.632Z,119.10
2023-02-12T00:44:10.528Z,125.40
2023-02-12T00:45:10.531Z,124.10
2023-02-12T00:46:10.617Z,127.20
2023-02-12T00:47:10.548Z,127.00
2023-02-12T00:48:10.498Z,128.30
2023-02-12T00:49:11.518Z,134.30
2023-02-12T00:50:10.484Z,125.60
2023-02-12T00:51:10.554Z,133.10
2023-02-12T00:52:10.511Z,129.60
2023-02-12T00:53:11.476Z,134.10
2023-02-12T00:54:10.481Z,131.20
2023-02-12T00:55:10.502Z,131.20
2023-02-12T00:56:10.445Z,136.20
2023-02-12T00:57:10.449Z,129.20
2023-02-12T00:58:10.436Z,134.40
2023-02-12T00:59:10.467Z,136.90
2023-02-12T01:00:10.418Z,129.60
2023-02-12T01:01:10.447Z,131.60
2023-02-12T01:02:10.416Z,132.60
2023-02-12T01:03:10.437Z,136.40
2023-02-12T01:04:10.390Z,130.50
2023-02-12T01:05:10.464Z,136.00
2023-02-12T01:06:10.422Z,129.10
2023-02-12T01:07:10.410Z,134.50
2023-02-12T01:08:10.398Z,136.50
2023-02-12T01:09:10.381Z,130.40
2023-02-12T01:10:10.354Z,141.00
2023-02-12T01:11:10.413Z,138.60
2023-02-12T01:12:10.375Z,143.90
2023-02-12T01:13:10.365Z,138.20
2023-02-12T01:14:10.370Z,140.70
2023-02-12T01:15:10.331Z,144.60
2023-02-12T01:16:10.477Z,150.40
2023-02-12T01:17:10.342Z,145.70
2023-02-12T01:18:10.320Z,135.70
2023-02-12T01:19:10.345Z,138.10
2023-02-12T01:20:10.329Z,136.30
2023-02-12T01:21:10.318Z,137.20
2023-02-12T01:22:10.315Z,141.10
2023-02-12T01:23:10.332Z,140.60
2023-02-12T01:24:10.342Z,142.40
2023-02-12T01:25:10.329Z,135.50
2023-02-12T01:26:10.280Z,141.00
2023-02-12T01:27:10.279Z,139.60
2023-02-12T01:28:10.312Z,132.20
2023-02-12T01:29:10.290Z,133.00
2023-02-12T01:30:10.298Z,132.90
2023-02-12T01:31:10.416Z,135.00
2023-02-12T01:32:10.326Z,139.00
2023-02-12T01:33:10.245Z,139.80
2023-02-12T01:34:10.369Z,140.40
2023-02-12T01:35:10.223Z,135.70
2023-02-12T01:36:10.239Z,140.30
2023-02-12T01:37:10.218Z,143.30
2023-02-12T01:38:10.211Z,148.70
2023-02-12T01:39:10.218Z,145.10
2023-02-12T01:40:10.248Z,142.60
2023-02-12T01:41:10.217Z,142.40
2023-02-12T01:42:10.216Z,140.50
2023-02-12T01:43:10.160Z,143.90
2023-02-12T01:44:10.205Z,139.50
2023-02-12T01:45:10.219Z,147.70
2023-02-12T01:46:10.193Z,133.80
2023-02-12T01:47:10.174Z,141.50
2023-02-12T01:48:10.160Z,144.20
2023-02-12T01:49:10.205Z,138.00
2023-02-12T01:50:10.176Z,147.50
2023-02-12T01:51:10.192Z,141.20
2023-02-12T01:52:10.180Z,144.00
2023-02-12T01:53:10.155Z,137.70
2023-02-12T01:54:10.141Z,142.40
2023-02-12T01:55:10.179Z,149.80
2023-02-12T01:56:10.111Z,149.20
2023-02-12T01:57:10.115Z,146.20
2023-02-12T01:58:10.154Z,135.50
2023-02-12T01:59:10.120Z,152.20
2023-02-12T02:00:10.135Z,140.10
2023-02-12T02:01:10.100Z,141.80
2023-02-12T02:02:10.125Z,149.10
2023-02-12T02:03:10.203Z,140.10
2023-02-12T02:04:10.123Z,142.20
2023-02-12T02:05:10.081Z,148.30
2023-02-12T02:06:10.083Z,143.60
2023-02-12T02:07:10.069Z,142.70
2023-02-12T02:08:10.098Z,150.60
2023-02-12T02:09:10.040Z,144.30
2023-02-12T02:10:10.086Z,151.50
2023-02-12T02:11:10.050Z,149.10
2023-02-12T02:12:10.064Z,148.00
2023-02-12T02:13:10.025Z,151.30
2023-02-12T02:14:10.062Z,152.40
2023-02-12T02:15:10.026Z,147.90
2023-02-12T02:16:10.056Z,147.60
2023-02-12T02:17:10.041Z,143.50
2023-02-12T02:18:10.028Z,143.90
2023-02-12T02:19:09.981Z,144.60
2023-02-12T02:20:09.997Z,143.50
2023-02-12T02:21:09.980Z,141.10
2023-02-12T02:22:09.970Z,147.70
2023-02-12T02:23:10.037Z,146.80
2023-02-12T02:24:09.981Z,159.90
2023-02-12T02:25:09.956Z,154.60
2023-02-12T02:26:09.957Z,149.90
2023-02-12T02:27:09.973Z,146.90
2023-02-12T02:28:09.988Z,150.10
2023-02-12T02:29:09.938Z,151.00
2023-02-12T02:30:09.918Z,143.60
2023-02-12T02:31:10.073Z,148.70
2023-02-12T02:32:09.951Z,140.80
2023-02-12T02:33:09.915Z,151.60
2023-02-12T02:34:09.931Z,147.80
2023-02-12T02:35:09.932Z,145.00
2023-02-12T02:36:09.894Z,147.70
2023-02-12T02:37:09.913Z,153.30
2023-02-12T02:38:09.915Z,152.00
2023-02-12T02:39:09.860Z,140.60
2023-02-12T02:40:09.889Z,158.10
2023-02-12T02:41:09.880Z,143.60
2023-02-12T02:42:09.866Z,141.20
2023-02-12T02:43:09.929Z,141.10
2023-02-12T02:44:09.825Z,133.90
2023-02-12T02:45:09.837Z,142.70
2023-02-12T02:46:09.855Z,143.20
2023-02-12T02:47:09.839Z,137.40
2023-02-12T02:48:09.858Z,134.30
2023-02-12T02:49:09.812Z,140.00
2023-02-12T02:50:09.815Z,137.80
2023-02-12T02:51:09.834Z,138.70
2023-02-12T02:52:09.788Z,141.80
2023-02-12T02:53:09.840Z,127.80
2023-02-12T02:54:09.769Z,132.40
2023-02-12T02:55:09.798Z,125.40
2023-02-12T02:56:09.802Z,134.10
2023-02-12T02:57:09.780Z,137.50
2023-02-12T02:58:09.829Z,136.40
2023-02-12T02:59:09.792Z,136.30
2023-02-12T03:00:09.742Z,131.10
2023-02-12T03:01:10.030Z,146.00
2023-02-12T03:02:09.761Z,140.90
2023-02-12T03:03:09.804Z,133.40
2023-02-12T03:04:09.796Z,148.90
2023-02-12T03:05:09.705Z,145.80
2023-02-12T03:06:09.744Z,147.80
2023-02-12T03:07:09.734Z,147.80
2023-02-12T03:08:09.727Z,143.70
2023-02-12T03:09:09.728Z,150.50
2023-02-12T03:10:09.687Z,155.70
2023-02-12T03:11:09.689Z,145.60
2023-02-12T03:12:09.679Z,146.70
2023-02-12T03:13:09.676Z,146.40
2023-02-12T03:14:09.695Z,145.90
2023-02-12T03:15:09.728Z,144.00
2023-02-12T03:16:09.836Z,144.10
2023-02-12T03:17:09.661Z,152.60
2023-02-12T03:18:09.668Z,148.60
2023-02-12T03:19:09.719Z,139.00
2023-02-12T03:20:09.660Z,151.20
2023-02-12T03:21:09.627Z,143.00
2023-02-12T03:22:09.617Z,142.20
2023-02-12T03:23:09.641Z,158.00
2023-02-12T03:24:09.668Z,150.80
2023-02-12T03:25:09.631Z,146.30
2023-02-12T03:26:09.639Z,140.30
2023-02-12T03:27:09.613Z,146.30
2023-02-12T03:28:09.667Z,139.60
2023-02-12T03:29:09.640Z,143.70
2023-02-12T03:30:09.633Z,151.60
2023-02-12T03:31:09.760Z,154.30
2023-02-12T03:32:09.628Z,152.00
2023-02-12T03:33:09.600Z,154.50
2023-02-12T03:34:09.603Z,154.60
2023-02-12T03:35:09.558Z,149.90
2023-02-12T03:36:09.610Z,157.30
2023-02-12T03:37:09.558Z,160.40
2023-02-12T03:38:09.583Z,152.70
2023-02-12T03:39:09.545Z,159.60
2023-02-12T03:40:09.559Z,163.70
2023-02-12T03:41:09.538Z,159.30
2023-02-12T03:42:09.595Z,154.60
2023-02-12T03:43:09.520Z,155.00
2023-02-12T03:44:09.532Z,158.00
2023-02-12T03:45:09.510Z,165.60
2023-02-12T03:46:09.543Z,157.30
2023-02-12T03:47:09.537Z,159.80
2023-02-12T03:48:09.554Z,167.50
2023-02-12T03:49:09.496Z,159.90
2023-02-12T03:50:09.486Z,150.90
2023-02-12T03:51:09.532Z,144.50
2023-02-12T03:52:09.491Z,134.50
2023-02-12T03:53:09.502Z,141.10
2023-02-12T03:54:09.473Z,134.70
2023-02-12T03:55:09.438Z,134.40
2023-02-12T03:56:09.451Z,135.20
2023-02-12T03:57:09.437Z,135.90
2023-02-12T03:58:09.690Z,134.00
2023-02-12T03:59:09.428Z,128.70
2023-02-12T04:00:09.461Z,122.80
2023-02-12T04:01:09.512Z,123.40
2023-02-12T04:02:09.506Z,126.50
2023-02-12T04:03:09.411Z,122.70
2023-02-12T04:04:09.611Z,121.60
2023-02-12T04:05:09.436Z,123.20
2023-02-12T04:06:09.415Z,131.30
2023-02-12T04:07:09.374Z,133.30
2023-02-12T04:08:09.466Z,135.50
2023-02-12T04:09:09.404Z,132.70
2023-02-12T04:10:09.356Z,136.90
2023-02-12T04:11:09.360Z,135.20
2023-02-12T04:12:09.392Z,129.30
2023-02-12T04:13:09.334Z,134.20
2023-02-12T04:14:09.317Z,134.50
2023-02-12T04:15:09.368Z,133.00
2023-02-12T04:16:09.400Z,123.80
2023-02-12T04:17:09.340Z,133.10
2023-02-12T04:18:09.326Z,136.10
2023-02-12T04:19:09.288Z,131.80
2023-02-12T04:20:09.315Z,141.90
2023-02-12T04:21:09.302Z,139.80
2023-02-12T04:22:09.288Z,138.20
2023-02-12T04:23:09.271Z,144.50
2023-02-12T04:24:09.338Z,154.60
2023-02-12T04:25:09.295Z,160.80
2023-02-12T04:26:09.356Z,166.90
2023-02-12T04:27:09.282Z,164.40
2023-02-12T04:28:09.330Z,166.80
2023-02-12T04:29:09.266Z,169.90
2023-02-12T04:30:09.293Z,187.20
2023-02-12T04:31:09.485Z,181.20
2023-02-12T04:32:09.250Z,183.70
2023-02-12T04:33:09.232Z,179.30
2023-02-12T04:34:09.235Z,183.90
2023-02-12T04:35:09.304Z,191.30
2023-02-12T04:36:09.291Z,196.80
2023-02-12T04:37:09.223Z,192.60
2023-02-12T04:38:09.203Z,196.70
2023-02-12T04:39:09.197Z,196.10
2023-02-12T04:40:09.158Z,191.70
2023-02-12T04:41:09.274Z,189.30
2023-02-12T04:42:09.176Z,192.20
2023-02-12T04:43:09.240Z,189.90
2023-02-12T04:44:09.189Z,187.60
2023-02-12T04:45:09.161Z,188.00
2023-02-12T04:46:09.192Z,193.50
2023-02-12T04:47:10.187Z,190.90
2023-02-12T04:48:09.166Z,186.30
2023-02-12T04:49:09.165Z,181.10
2023-02-12T04:50:09.131Z,185.20
2023-02-12T04:51:09.116Z,188.20
2023-02-12T04:52:09.119Z,182.30
2023-02-12T04:53:09.165Z,181.60
2023-02-12T04:54:09.110Z,190.10
2023-02-12T04:55:09.094Z,187.80
2023-02-12T04:56:09.087Z,218.70
2023-02-12T04:57:09.151Z,208.60
2023-02-12T04:58:09.092Z,198.70
2023-02-12T04:59:09.076Z,191.30
2023-02-12T05:00:09.066Z,201.50
2023-02-12T05:01:09.184Z,212.90
2023-02-12T05:02:09.084Z,197.20
2023-02-12T05:03:09.072Z,199.70
2023-02-12T05:04:09.043Z,194.90
2023-02-12T05:05:09.164Z,204.80
2023-02-12T05:06:09.034Z,195.80
2023-02-12T05:07:09.031Z,209.20
2023-02-12T05:08:09.029Z,193.00
2023-02-12T05:09:09.065Z,193.80
2023-02-12T05:10:08.988Z,198.70
2023-02-12T05:11:09.012Z,217.50
2023-02-12T05:12:08.991Z,216.30
2023-02-12T05:13:08.980Z,206.90
2023-02-12T05:14:09.008Z,207.40
2023-02-12T05:15:08.985Z,200.20
2023-02-12T05:16:09.072Z,193.30
2023-02-12T05:17:08.972Z,225.60
2023-02-12T05:18:08.954Z,189.30
2023-02-12T05:19:08.967Z,199.50
2023-02-12T05:20:08.978Z,193.60
2023-02-12T05:21:08.966Z,194.30
2023-02-12T05:22:08.950Z,189.70
2023-02-12T05:23:08.936Z,202.40
2023-02-12T05:24:08.968Z,205.40
2023-02-12T05:25:08.962Z,172.10
2023-02-12T05:26:08.961Z,178.90
2023-02-12T05:27:08.945Z,178.30
2023-02-12T05:28:09.000Z,174.70
2023-02-12T05:29:08.901Z,181.70
2023-02-12T05:30:08.915Z,180.70
2023-02-12T05:31:08.999Z,302.20
2023-02-12T05:32:08.994Z,186.90
2023-02-12T05:33:08.931Z,183.40
2023-02-12T05:34:08.870Z,190.70
2023-02-12T05:35:08.891Z,188.80
2023-02-12T05:36:09.879Z,195.20
2023-02-12T05:37:08.880Z,195.50
2023-02-12T05:38:08.848Z,192.00
2023-02-12T05:39:08.833Z,197.30
2023-02-12T05:40:08.907Z,187.50
2023-02-12T05:41:08.825Z,197.20
2023-02-12T05:42:08.916Z,190.10
2023-02-12T05:43:08.811Z,188.90
2023-02-12T05:44:08.797Z,183.40
2023-02-12T05:45:08.803Z,185.00
2023-02-12T05:46:08.839Z,194.80
2023-02-12T05:47:08.817Z,181.60
2023-02-12T05:48:08.819Z,178.50
2023-02-12T05:49:08.795Z,181.40
2023-02-12T05:50:08.785Z,177.30
2023-02-12T05:51:08.795Z,178.80
2023-02-12T05:52:08.809Z,178.10
2023-02-12T05:53:08.771Z,179.70
2023-02-12T05:54:08.850Z,185.40
2023-02-12T05:55:08.753Z,196.30
2023-02-12T05:56:08.769Z,190.10
2023-02-12T05:57:08.771Z,222.20
2023-02-12T05:58:08.792Z,184.00
2023-02-12T05:59:08.758Z,175.30
2023-02-12T06:00:08.711Z,177.80
2023-02-12T06:01:08.711Z,176.50
2023-02-12T06:02:09.850Z,173.90
2023-02-12T06:03:08.868Z,166.00
2023-02-12T06:04:08.871Z,267.00
2023-02-12T06:05:08.806Z,173.80
2023-02-12T06:06:08.701Z,210.20
2023-02-12T06:07:08.666Z,256.00
2023-02-12T06:08:08.692Z,190.60
2023-02-12T06:09:08.726Z,160.30
2023-02-12T06:10:08.661Z,172.40
2023-02-12T06:11:08.685Z,178.80
2023-02-12T06:12:08.676Z,177.60
2023-02-12T06:13:08.651Z,174.60
2023-02-12T06:14:08.669Z,181.30
2023-02-12T06:15:08.663Z,175.90
2023-02-12T06:16:08.668Z,178.00
2023-02-12T06:17:08.629Z,180.10
2023-02-12T06:18:08.630Z,173.00
2023-02-12T06:19:08.620Z,173.70
2023-02-12T06:20:08.813Z,172.40
2023-02-12T06:21:08.622Z,292.00
2023-02-12T06:22:08.580Z,215.80
2023-02-12T06:23:08.663Z,361.20
2023-02-12T06:24:08.606Z,206.90
2023-02-12T06:25:08.626Z,230.50
2023-02-12T06:26:08.584Z,282.40
2023-02-12T06:27:08.579Z,329.80
2023-02-12T06:28:08.627Z,360.70
2023-02-12T06:29:08.539Z,288.70
2023-02-12T06:30:08.559Z,363.00
2023-02-12T06:31:08.880Z,414.60
2023-02-12T06:32:08.853Z,362.50
2023-02-12T06:33:08.718Z,289.10
2023-02-12T06:34:08.521Z,316.70
2023-02-12T06:35:08.529Z,267.20
2023-02-12T06:36:08.541Z,265.70
2023-02-12T06:37:08.537Z,269.10
2023-02-12T06:38:08.555Z,287.30
2023-02-12T06:39:08.522Z,283.80
2023-02-12T06:40:08.504Z,296.20
2023-02-12T06:41:08.495Z,278.40
2023-02-12T06:42:08.495Z,272.40
2023-02-12T06:43:08.496Z,271.70
2023-02-12T06:44:08.471Z,256.00
2023-02-12T06:45:08.480Z,258.80
2023-02-12T06:46:08.465Z,295.40
2023-02-12T06:47:08.512Z,258.00
2023-02-12T06:48:08.448Z,268.70
2023-02-12T06:49:08.462Z,268.10
2023-02-12T06:50:08.424Z,261.70
2023-02-12T06:51:08.443Z,337.50
2023-02-12T06:52:08.523Z,260.20
2023-02-12T06:53:08.545Z,251.10
2023-02-12T06:54:08.434Z,295.30
2023-02-12T06:55:08.439Z,268.70
2023-02-12T06:56:08.377Z,268.90
2023-02-12T06:57:08.406Z,268.90
2023-02-12T06:58:08.409Z,258.50
2023-02-12T06:59:08.417Z,266.00
2023-02-12T07:00:08.425Z,254.60
2023-02-12T07:01:08.691Z,255.30
2023-02-12T07:02:08.988Z,257.70
2023-02-12T07:03:08.418Z,251.10
2023-02-12T07:04:08.404Z,277.70
2023-02-12T07:05:08.347Z,251.20
2023-02-12T07:06:08.327Z,256.10
2023-02-12T07:07:08.599Z,256.40
2023-02-12T07:08:08.475Z,242.30
2023-02-12T07:09:08.432Z,237.40
2023-02-12T07:10:08.399Z,238.20
2023-02-12T07:11:08.312Z,261.80
2023-02-12T07:12:11.298Z,238.90
2023-02-12T07:13:08.512Z,220.80
2023-02-12T07:14:08.277Z,218.10
2023-02-12T07:15:08.349Z,205.60
2023-02-12T07:16:08.312Z,321.30
2023-02-12T07:17:08.296Z,223.50
2023-02-12T07:18:08.270Z,233.50
2023-02-12T07:19:08.254Z,223.00
2023-02-12T07:20:08.287Z,378.60
2023-02-12T07:21:08.282Z,260.30
2023-02-12T07:22:08.245Z,342.00
2023-02-12T07:23:08.289Z,233.30
2023-02-12T07:24:08.210Z,228.10
2023-02-12T07:25:08.221Z,244.20
2023-02-12T07:26:08.225Z,418.00
2023-02-12T07:27:08.213Z,316.60
2023-02-12T07:28:08.247Z,254.30
2023-02-12T07:29:08.214Z,241.80
2023-02-12T07:30:08.302Z,331.70
2023-02-12T07:31:08.321Z,253.50
2023-02-12T07:32:08.261Z,246.30
2023-02-12T07:33:08.177Z,252.10
2023-02-12T07:34:08.172Z,255.80
2023-02-12T07:35:08.194Z,265.00
2023-02-12T07:36:08.162Z,249.10
2023-02-12T07:37:08.166Z,289.60
2023-02-12T07:38:08.280Z,288.30
2023-02-12T07:39:08.158Z,250.40
2023-02-12T07:40:08.163Z,360.40
2023-02-12T07:41:10.551Z,265.60
2023-02-12T07:42:10.137Z,277.30
2023-02-12T07:43:08.106Z,364.40
2023-02-12T07:44:09.744Z,266.60
2023-02-12T07:45:08.898Z,383.70
2023-02-12T07:46:08.206Z,276.30
2023-02-12T07:47:09.113Z,278.90
2023-02-12T07:48:08.089Z,282.30
2023-02-12T07:49:08.134Z,264.00
2023-02-12T07:50:08.086Z,268.00
2023-02-12T07:51:08.103Z,269.30
2023-02-12T07:52:08.058Z,259.60
2023-02-12T07:53:08.085Z,376.60
2023-02-12T07:54:08.522Z,278.50
2023-02-12T07:55:08.116Z,386.20
2023-02-12T07:56:08.130Z,293.20
2023-02-12T07:57:08.037Z,318.40
2023-02-12T07:58:08.045Z,370.30
2023-02-12T07:59:08.035Z,326.60
2023-02-12T08:00:08.004Z,293.90
2023-02-12T08:01:08.018Z,277.80
2023-02-12T08:02:08.012Z,271.20
2023-02-12T08:03:08.020Z,277.20
2023-02-12T08:04:08.115Z,268.10
2023-02-12T08:05:07.990Z,272.70
2023-02-12T08:06:08.046Z,282.90
2023-02-12T08:07:07.980Z,378.70
2023-02-12T08:08:08.139Z,273.30
2023-02-12T08:09:07.990Z,275.40
2023-02-12T08:10:07.969Z,282.20
2023-02-12T08:11:07.960Z,253.90
2023-02-12T08:12:07.989Z,271.60
2023-02-12T08:13:08.054Z,255.70
2023-02-12T08:14:07.973Z,265.80
2023-02-12T08:15:07.948Z,253.80
2023-02-12T08:16:07.984Z,268.70
2023-02-12T08:17:07.939Z,263.00
2023-02-12T08:18:07.920Z,261.70
2023-02-12T08:19:18.720Z,253.10
2023-02-12T08:20:09.948Z,256.90
2023-02-12T08:21:07.902Z,249.20
2023-02-12T08:22:07.903Z,253.70
2023-02-12T08:23:07.900Z,255.50
2023-02-12T08:24:07.929Z,250.90
2023-02-12T08:25:07.924Z,266.60
2023-02-12T08:26:07.892Z,262.70
2023-02-12T08:27:07.896Z,265.00
2023-02-12T08:28:07.874Z,263.00
2023-02-12T08:29:07.842Z,245.70
2023-02-12T08:30:07.850Z,243.00
2023-02-12T08:31:07.949Z,262.30
2023-02-12T08:32:07.847Z,289.60
2023-02-12T08:33:07.836Z,280.60
2023-02-12T08:34:07.830Z,254.10
2023-02-12T08:35:07.859Z,254.80
2023-02-12T08:36:07.845Z,311.70
2023-02-12T08:37:07.850Z,262.80
2023-02-12T08:38:07.809Z,264.60
2023-02-12T08:39:07.814Z,256.00
2023-02-12T08:40:07.792Z,252.80
2023-02-12T08:41:07.857Z,262.70
2023-02-12T08:42:07.823Z,299.20
2023-02-12T08:43:07.792Z,307.50
2023-02-12T08:44:07.814Z,280.60
2023-02-12T08:45:07.773Z,258.80
2023-02-12T08:46:07.822Z,310.70
2023-02-12T08:47:07.803Z,277.60
2023-02-12T08:48:07.733Z,275.70
2023-02-12T08:49:07.783Z,261.60
2023-02-12T08:50:07.748Z,267.20
2023-02-12T08:51:07.745Z,258.10
2023-02-12T08:52:07.787Z,261.20
2023-02-12T08:53:07.719Z,258.10
2023-02-12T08:54:07.773Z,258.90
2023-02-12T08:55:07.722Z,251.30
2023-02-12T08:56:07.717Z,246.20
2023-02-12T08:57:07.715Z,301.40
2023-02-12T08:58:07.695Z,312.50
2023-02-12T08:59:07.755Z,295.60
2023-02-12T09:00:07.736Z,261.50
2023-02-12T09:01:07.725Z,264.10
2023-02-12T09:02:07.775Z,262.70
2023-02-12T09:03:07.793Z,272.40
2023-02-12T09:04:07.660Z,272.60
2023-02-12T09:05:07.668Z,262.20
2023-02-12T09:06:07.654Z,258.50
2023-02-12T09:07:10.642Z,257.80
2023-02-12T09:08:08.733Z,305.10
2023-02-12T09:09:07.637Z,297.80
2023-02-12T09:10:07.666Z,289.50
2023-02-12T09:11:07.728Z,266.30
2023-02-12T09:12:07.633Z,265.00
2023-02-12T09:13:07.697Z,252.50
2023-02-12T09:14:07.645Z,269.20
2023-02-12T09:15:07.646Z,251.00
2023-02-12T09:16:07.621Z,255.50
2023-02-12T09:17:07.645Z,257.30
2023-02-12T09:18:07.613Z,253.80
2023-02-12T09:19:07.592Z,263.50
2023-02-12T09:20:07.604Z,291.70
2023-02-12T09:21:07.621Z,267.30
2023-02-12T09:22:07.724Z,271.70
2023-02-12T09:23:07.703Z,267.50
2023-02-12T09:24:07.751Z,303.10
2023-02-12T09:25:07.596Z,264.00
2023-02-12T09:26:07.799Z,279.00
2023-02-12T09:27:07.560Z,276.40
2023-02-12T09:28:07.589Z,268.80
2023-02-12T09:29:07.570Z,268.30
2023-02-12T09:30:07.550Z,291.70
2023-02-12T09:31:07.640Z,278.40
2023-02-12T09:32:07.571Z,284.90
2023-02-12T09:33:07.537Z,272.10
2023-02-12T09:34:07.603Z,265.00
2023-02-12T09:35:07.510Z,262.40
2023-02-12T09:36:07.506Z,258.50
2023-02-12T09:37:07.516Z,245.10
2023-02-12T09:38:07.697Z,249.20
2023-02-12T09:39:07.540Z,241.70
2023-02-12T09:40:07.493Z,243.20
2023-02-12T09:41:07.504Z,254.00
2023-02-12T09:42:07.544Z,256.00
2023-02-12T09:43:07.524Z,261.70
2023-02-12T09:44:07.512Z,251.00
2023-02-12T09:45:07.467Z,267.20
2023-02-12T09:46:07.528Z,265.20
2023-02-12T09:47:07.490Z,263.00
2023-02-12T09:48:07.431Z,253.20
2023-02-12T09:49:07.447Z,247.40
2023-02-12T09:50:07.532Z,247.50
2023-02-12T09:51:07.434Z,251.00
2023-02-12T09:52:07.453Z,246.10
2023-02-12T09:53:07.470Z,251.10
2023-02-12T09:54:07.446Z,258.10
2023-02-12T09:55:07.450Z,255.30
2023-02-12T09:56:07.432Z,260.50
2023-02-12T09:57:07.436Z,256.30
2023-02-12T09:58:07.390Z,236.30
2023-02-12T09:59:07.398Z,229.50
2023-02-12T10:00:07.494Z,233.90
2023-02-12T10:01:07.409Z,230.80
2023-02-12T10:02:08.435Z,228.10
2023-02-12T10:03:07.375Z,216.70
2023-02-12T10:04:07.463Z,223.20
2023-02-12T10:05:07.512Z,225.60
2023-02-12T10:06:07.403Z,208.50
2023-02-12T10:07:07.379Z,210.80
2023-02-12T10:08:07.376Z,216.60
2023-02-12T10:09:07.378Z,214.10
2023-02-12T10:10:08.106Z,206.80
2023-02-12T10:11:08.391Z,207.60
2023-02-12T10:12:07.357Z,214.10
2023-02-12T10:13:07.436Z,198.60
2023-02-12T10:14:07.393Z,199.20
2023-02-12T10:15:07.407Z,192.30
2023-02-12T10:16:07.383Z,213.40
2023-02-12T10:17:07.375Z,207.10
2023-02-12T10:18:07.348Z,197.50
2023-02-12T10:19:07.358Z,197.10
2023-02-12T10:20:07.353Z,195.20
2023-02-12T10:21:07.346Z,195.00
2023-02-12T10:22:07.419Z,204.50
2023-02-12T10:23:07.354Z,210.50
2023-02-12T10:24:07.383Z,207.40
2023-02-12T10:25:07.291Z,199.70
2023-02-12T10:26:07.354Z,205.10
2023-02-12T10:27:07.322Z,207.70
2023-02-12T10:28:07.330Z,201.50
2023-02-12T10:29:07.294Z,196.60
2023-02-12T10:30:07.303Z,199.60
2023-02-12T10:31:07.368Z,203.50
2023-02-12T10:32:07.318Z,206.60
2023-02-12T10:33:07.294Z,205.50
2023-02-12T10:34:07.288Z,201.60
2023-02-12T10:35:07.288Z,211.10
2023-02-12T10:36:07.253Z,208.90
2023-02-12T10:37:07.282Z,217.50
2023-02-12T10:38:07.246Z,206.10
2023-02-12T10:39:07.252Z,198.70
2023-02-12T10:40:07.261Z,204.10
2023-02-12T10:41:07.238Z,212.40
2023-02-12T10:42:08.247Z,200.50
2023-02-12T10:43:09.726Z,201.90
2023-02-12T10:44:07.272Z,206.70
2023-02-12T10:45:07.187Z,209.30
2023-02-12T10:46:07.284Z,207.10
2023-02-12T10:47:07.184Z,211.40
2023-02-12T10:48:07.210Z,200.10
2023-02-12T10:49:07.172Z,213.50
2023-02-12T10:50:07.190Z,201.70
2023-02-12T10:51:07.158Z,217.00
2023-02-12T10:52:07.154Z,194.70
2023-02-12T10:53:07.194Z,193.80
2023-02-12T10:54:07.151Z,192.00
2023-02-12T10:55:07.134Z,192.10
2023-02-12T10:56:07.148Z,180.70
2023-02-12T10:57:07.155Z,181.50
2023-02-12T10:58:07.236Z,189.70
2023-02-12T10:59:07.198Z,181.30
2023-02-12T11:00:07.114Z,172.80
2023-02-12T11:01:07.116Z,182.70
2023-02-12T11:02:07.116Z,167.10
2023-02-12T11:03:07.145Z,175.30
2023-02-12T11:04:07.220Z,167.90
2023-02-12T11:05:07.150Z,162.90
2023-02-12T11:06:07.142Z,160.80
2023-02-12T11:07:07.120Z,152.00
2023-02-12T11:08:07.109Z,166.20
2023-02-12T11:09:07.066Z,154.60
2023-02-12T11:10:07.130Z,169.10
2023-02-12T11:11:07.101Z,166.00
2023-02-12T11:12:07.081Z,171.20
2023-02-12T11:13:07.061Z,166.40
2023-02-12T11:14:07.087Z,164.00
2023-02-12T11:15:07.079Z,159.60
2023-02-12T11:16:07.190Z,157.10
2023-02-12T11:17:07.026Z,151.30
2023-02-12T11:18:07.077Z,159.20
2023-02-12T11:19:07.058Z,156.60
2023-02-12T11:20:07.024Z,156.30
2023-02-12T11:21:07.485Z,148.10
2023-02-12T11:22:07.172Z,152.70
2023-02-12T11:23:07.004Z,141.90
2023-02-12T11:24:07.003Z,149.20
2023-02-12T11:25:07.035Z,130.10
2023-02-12T11:26:07.058Z,121.30
2023-02-12T11:27:07.017Z,154.30
2023-02-12T11:28:07.110Z,157.80
2023-02-12T11:29:07.187Z,158.50
2023-02-12T11:30:06.963Z,150.70
2023-02-12T11:31:07.061Z,146.20
2023-02-12T11:32:07.144Z,122.50
2023-02-12T11:33:07.028Z,127.00
2023-02-12T11:34:06.973Z,143.30
2023-02-12T11:35:06.986Z,145.70
2023-02-12T11:36:07.694Z,150.80
2023-02-12T11:37:08.019Z,151.60
2023-02-12T11:38:06.956Z,155.80
2023-02-12T11:39:06.945Z,162.10
2023-02-12T11:40:06.971Z,157.40
2023-02-12T11:41:07.913Z,155.00
2023-02-12T11:42:06.964Z,164.70
2023-02-12T11:43:06.987Z,162.60
2023-02-12T11:44:06.944Z,171.40
2023-02-12T11:45:06.989Z,166.70
2023-02-12T11:46:07.301Z,155.10
2023-02-12T11:47:06.994Z,175.30
2023-02-12T11:48:06.924Z,160.40
2023-02-12T11:49:06.953Z,143.80
2023-02-12T11:50:06.981Z,152.20
2023-02-12T11:51:06.908Z,148.70
2023-02-12T11:52:06.891Z,152.20
2023-02-12T11:53:06.888Z,135.30
2023-02-12T11:54:06.880Z,132.40
2023-02-12T11:55:07.178Z,115.40
2023-02-12T11:56:06.871Z,132.10
2023-02-12T11:57:06.883Z,132.90
2023-02-12T11:58:07.176Z,125.20
2023-02-12T11:59:06.855Z,114.00
2023-02-12T12:00:06.838Z,113.50
2023-02-12T12:01:06.930Z,103.00
2023-02-12T12:02:06.907Z,94.00
2023-02-12T12:03:06.829Z,97.30
2023-02-12T12:04:06.843Z,99.00
2023-02-12T12:05:06.800Z,101.90
2023-02-12T12:06:06.856Z,97.60
2023-02-12T12:07:06.811Z,84.20
2023-02-12T12:08:06.841Z,80.90
2023-02-12T12:09:06.814Z,62.70
2023-02-12T12:10:06.818Z,66.10
2023-02-12T12:11:06.800Z,71.50
2023-02-12T12:12:06.786Z,68.90
2023-02-12T12:13:06.789Z,72.90
2023-02-12T12:14:06.927Z,73.40
2023-02-12T12:15:06.934Z,67.10
2023-02-12T12:16:07.283Z,69.00
2023-02-12T12:17:06.786Z,41.40
2023-02-12T12:18:06.760Z,43.90
2023-02-12T12:19:06.775Z,56.20
2023-02-12T12:20:06.786Z,57.90
2023-02-12T12:21:06.742Z,63.60
2023-02-12T12:22:06.719Z,58.80
2023-02-12T12:23:06.711Z,54.10
2023-02-12T12:24:06.734Z,54.20
2023-02-12T12:25:06.764Z,47.40
2023-02-12T12:26:06.833Z,48.60
2023-02-12T12:27:06.720Z,56.50
2023-02-12T12:28:06.726Z,63.40
2023-02-12T12:29:06.781Z,59.50